sensor_id;sensor_type;location;lat;lon;timestamp;P1;durP1;ratioP1;P2;durP2;ratioP2
15254;SDS011;7730;49.610;11.136;2022-11-11T00:00:17;13.23;;;6.72;;
15254;SDS011;7730;49.610;11.136;2022-11-11T00:02:44;13.02;;;6.53;;
15254;SDS011;7730;49.610;11.136;2022-11-11T00:05:13;13.63;;;7.10;;
15254;SDS011;7730;49.610;11.136;2022-11-11T00:07:40;13.95;;;6.57;;
15254;SDS011;7730;49.610;11.136;2022-11-11T00:10:07;13.15;;;6.22;;
15254;SDS011;7730;49.610;11.136;2022-11-11T00:12:34;14.23;;;7.00;;
15254;SDS011;7730;49.610;11.136;2022-11-11T00:15:02;13.23;;;6.60;;
15254;SDS011;7730;49.610;11.136;2022-11-11T00:17:30;13.23;;;6.85;;
15254;SDS011;7730;49.610;11.136;2022-11-11T00:20:15;13.98;;;6.38;;
15254;SDS011;7730;49.610;11.136;2022-11-11T00:23:00;12.13;;;5.68;;
15254;SDS011;7730;49.610;11.136;2022-11-11T00:25:44;12.02;;;5.65;;
15254;SDS011;7730;49.610;11.136;2022-11-11T00:28:11;9.77;;;4.40;;
15254;SDS011;7730;49.610;11.136;2022-11-11T00:30:38;8.50;;;4.07;;
15254;SDS011;7730;49.610;11.136;2022-11-11T00:33:06;8.52;;;4.30;;
15254;SDS011;7730;49.610;11.136;2022-11-11T00:35:34;9.80;;;4.50;;
15254;SDS011;7730;49.610;11.136;2022-11-11T00:38:19;10.98;;;4.55;;
15254;SDS011;7730;49.610;11.136;2022-11-11T00:41:03;9.48;;;4.50;;
15254;SDS011;7730;49.610;11.136;2022-11-11T00:43:31;11.85;;;4.70;;
15254;SDS011;7730;49.610;11.136;2022-11-11T00:45:58;11.85;;;5.18;;
15254;SDS011;7730;49.610;11.136;2022-11-11T00:48:40;15.32;;;7.15;;
15254;SDS011;7730;49.610;11.136;2022-11-11T00:51:25;16.42;;;8.00;;
15254;SDS011;7730;49.610;11.136;2022-11-11T00:53:52;16.58;;;7.43;;
15254;SDS011;7730;49.610;11.136;2022-11-11T00:56:19;16.38;;;7.32;;
15254;SDS011;7730;49.610;11.136;2022-11-11T00:58:46;14.70;;;6.88;;
15254;SDS011;7730;49.610;11.136;2022-11-11T01:01:14;15.32;;;6.85;;
15254;SDS011;7730;49.610;11.136;2022-11-11T01:03:42;14.85;;;6.93;;
15254;SDS011;7730;49.610;11.136;2022-11-11T01:06:10;13.75;;;6.68;;
15254;SDS011;7730;49.610;11.136;2022-11-11T01:08:37;14.50;;;6.97;;
15254;SDS011;7730;49.610;11.136;2022-11-11T01:11:10;14.27;;;7.05;;
15254;SDS011;7730;49.610;11.136;2022-11-11T01:13:37;12.50;;;6.20;;
15254;SDS011;7730;49.610;11.136;2022-11-11T01:16:05;13.15;;;7.00;;
15254;SDS011;7730;49.610;11.136;2022-11-11T01:18:32;13.52;;;6.63;;
15254;SDS011;7730;49.610;11.136;2022-11-11T01:21:02;12.40;;;5.95;;
15254;SDS011;7730;49.610;11.136;2022-11-11T01:23:29;13.80;;;6.53;;
15254;SDS011;7730;49.610;11.136;2022-11-11T01:25:59;13.85;;;6.80;;
15254;SDS011;7730;49.610;11.136;2022-11-11T01:28:27;16.33;;;7.88;;
15254;SDS011;7730;49.610;11.136;2022-11-11T01:30:58;16.67;;;9.52;;
15254;SDS011;7730;49.610;11.136;2022-11-11T01:33:26;15.68;;;8.10;;
15254;SDS011;7730;49.610;11.136;2022-11-11T01:35:53;15.13;;;8.15;;
15254;SDS011;7730;49.610;11.136;2022-11-11T01:38:21;15.10;;;7.07;;
15254;SDS011;7730;49.610;11.136;2022-11-11T01:40:48;14.15;;;6.90;;
15254;SDS011;7730;49.610;11.136;2022-11-11T01:43:20;14.90;;;7.25;;
15254;SDS011;7730;49.610;11.136;2022-11-11T01:45:48;13.25;;;6.60;;
15254;SDS011;7730;49.610;11.136;2022-11-11T01:48:16;13.88;;;6.70;;
15254;SDS011;7730;49.610;11.136;2022-11-11T01:51:02;13.95;;;7.32;;
15254;SDS011;7730;49.610;11.136;2022-11-11T01:53:32;13.52;;;7.22;;
15254;SDS011;7730;49.610;11.136;2022-11-11T01:55:59;14.63;;;7.60;;
15254;SDS011;7730;49.610;11.136;2022-11-11T01:58:26;13.55;;;6.60;;
15254;SDS011;7730;49.610;11.136;2022-11-11T02:00:54;13.25;;;6.43;;
15254;SDS011;7730;49.610;11.136;2022-11-11T02:03:22;13.48;;;6.97;;
15254;SDS011;7730;49.610;11.136;2022-11-11T02:05:51;15.55;;;6.80;;
15254;SDS011;7730;49.610;11.136;2022-11-11T02:08:20;13.25;;;6.45;;
15254;SDS011;7730;49.610;11.136;2022-11-11T02:10:58;16.40;;;6.75;;
15254;SDS011;7730;49.610;11.136;2022-11-11T02:13:26;13.38;;;6.35;;
15254;SDS011;7730;49.610;11.136;2022-11-11T02:16:19;14.07;;;6.25;;
15254;SDS011;7730;49.610;11.136;2022-11-11T02:18:46;12.13;;;6.00;;
15254;SDS011;7730;49.610;11.136;2022-11-11T02:21:15;11.55;;;5.57;;
15254;SDS011;7730;49.610;11.136;2022-11-11T02:23:44;12.40;;;5.85;;
15254;SDS011;7730;49.610;11.136;2022-11-11T02:26:15;12.05;;;5.60;;
15254;SDS011;7730;49.610;11.136;2022-11-11T02:28:43;12.18;;;5.30;;
15254;SDS011;7730;49.610;11.136;2022-11-11T02:31:10;12.88;;;5.80;;
15254;SDS011;7730;49.610;11.136;2022-11-11T02:33:38;12.10;;;5.72;;
15254;SDS011;7730;49.610;11.136;2022-11-11T02:36:05;12.70;;;5.70;;
15254;SDS011;7730;49.610;11.136;2022-11-11T02:38:35;12.98;;;5.30;;
15254;SDS011;7730;49.610;11.136;2022-11-11T02:41:02;12.40;;;5.60;;
15254;SDS011;7730;49.610;11.136;2022-11-11T02:43:48;11.95;;;5.15;;
15254;SDS011;7730;49.610;11.136;2022-11-11T02:46:15;9.90;;;4.88;;
15254;SDS011;7730;49.610;11.136;2022-11-11T02:48:42;10.38;;;4.78;;
15254;SDS011;7730;49.610;11.136;2022-11-11T02:51:09;9.52;;;4.03;;
15254;SDS011;7730;49.610;11.136;2022-11-11T02:53:36;11.30;;;4.38;;
15254;SDS011;7730;49.610;11.136;2022-11-11T02:56:04;7.95;;;3.90;;
15254;SDS011;7730;49.610;11.136;2022-11-11T02:58:31;6.97;;;3.90;;
15254;SDS011;7730;49.610;11.136;2022-11-11T03:00:59;8.55;;;3.95;;
15254;SDS011;7730;49.610;11.136;2022-11-11T03:03:26;9.02;;;4.00;;
15254;SDS011;7730;49.610;11.136;2022-11-11T03:05:53;8.05;;;3.55;;
15254;SDS011;7730;49.610;11.136;2022-11-11T03:08:20;8.77;;;4.00;;
15254;SDS011;7730;49.610;11.136;2022-11-11T03:10:47;11.27;;;4.03;;
15254;SDS011;7730;49.610;11.136;2022-11-11T03:13:14;10.40;;;3.92;;
15254;SDS011;7730;49.610;11.136;2022-11-11T03:15:41;8.30;;;3.80;;
15254;SDS011;7730;49.610;11.136;2022-11-11T03:18:10;9.40;;;3.90;;
15254;SDS011;7730;49.610;11.136;2022-11-11T03:20:36;12.63;;;4.65;;
15254;SDS011;7730;49.610;11.136;2022-11-11T03:23:21;13.85;;;5.20;;
15254;SDS011;7730;49.610;11.136;2022-11-11T03:25:48;14.75;;;5.13;;
15254;SDS011;7730;49.610;11.136;2022-11-11T03:28:16;10.90;;;4.40;;
15254;SDS011;7730;49.610;11.136;2022-11-11T03:30:44;9.50;;;4.28;;
15254;SDS011;7730;49.610;11.136;2022-11-11T03:33:12;10.10;;;4.22;;
15254;SDS011;7730;49.610;11.136;2022-11-11T03:35:39;7.88;;;3.90;;
15254;SDS011;7730;49.610;11.136;2022-11-11T03:38:08;7.88;;;3.72;;
15254;SDS011;7730;49.610;11.136;2022-11-11T03:40:47;8.18;;;3.92;;
15254;SDS011;7730;49.610;11.136;2022-11-11T03:43:15;8.05;;;3.75;;
15254;SDS011;7730;49.610;11.136;2022-11-11T03:45:43;8.15;;;4.03;;
15254;SDS011;7730;49.610;11.136;2022-11-11T03:48:11;7.95;;;3.92;;
15254;SDS011;7730;49.610;11.136;2022-11-11T03:50:40;8.02;;;4.18;;
15254;SDS011;7730;49.610;11.136;2022-11-11T03:53:07;9.80;;;4.07;;
15254;SDS011;7730;49.610;11.136;2022-11-11T03:55:34;10.95;;;4.32;;
15254;SDS011;7730;49.610;11.136;2022-11-11T03:58:01;12.18;;;4.40;;
15254;SDS011;7730;49.610;11.136;2022-11-11T04:00:28;9.10;;;4.20;;
15254;SDS011;7730;49.610;11.136;2022-11-11T04:03:01;9.45;;;4.30;;
15254;SDS011;7730;49.610;11.136;2022-11-11T04:05:48;10.13;;;4.68;;
15254;SDS011;7730;49.610;11.136;2022-11-11T04:08:33;10.40;;;4.65;;
15254;SDS011;7730;49.610;11.136;2022-11-11T04:11:18;12.18;;;5.15;;
15254;SDS011;7730;49.610;11.136;2022-11-11T04:13:47;12.88;;;5.28;;
15254;SDS011;7730;49.610;11.136;2022-11-11T04:16:32;13.85;;;5.38;;
15254;SDS011;7730;49.610;11.136;2022-11-11T04:18:59;12.65;;;5.60;;
15254;SDS011;7730;49.610;11.136;2022-11-11T04:21:45;14.70;;;5.60;;
15254;SDS011;7730;49.610;11.136;2022-11-11T04:24:12;11.95;;;5.28;;
15254;SDS011;7730;49.610;11.136;2022-11-11T04:26:59;12.13;;;5.20;;
15254;SDS011;7730;49.610;11.136;2022-11-11T04:29:26;12.27;;;5.35;;
15254;SDS011;7730;49.610;11.136;2022-11-11T04:31:52;11.85;;;5.13;;
15254;SDS011;7730;49.610;11.136;2022-11-11T04:34:37;11.85;;;5.00;;
15254;SDS011;7730;49.610;11.136;2022-11-11T04:37:05;15.93;;;5.70;;
15254;SDS011;7730;49.610;11.136;2022-11-11T04:39:32;11.70;;;5.47;;
15254;SDS011;7730;49.610;11.136;2022-11-11T04:42:17;15.43;;;6.63;;
15254;SDS011;7730;49.610;11.136;2022-11-11T04:44:44;12.07;;;5.60;;
15254;SDS011;7730;49.610;11.136;2022-11-11T04:47:29;12.05;;;5.80;;
15254;SDS011;7730;49.610;11.136;2022-11-11T04:49:56;12.63;;;5.30;;
15254;SDS011;7730;49.610;11.136;2022-11-11T04:52:24;12.93;;;5.63;;
15254;SDS011;7730;49.610;11.136;2022-11-11T04:54:51;12.07;;;5.85;;
15254;SDS011;7730;49.610;11.136;2022-11-11T04:57:37;11.98;;;5.72;;
15254;SDS011;7730;49.610;11.136;2022-11-11T05:00:05;12.82;;;5.70;;
15254;SDS011;7730;49.610;11.136;2022-11-11T05:02:32;14.02;;;6.38;;
15254;SDS011;7730;49.610;11.136;2022-11-11T05:05:17;11.63;;;6.10;;
15254;SDS011;7730;49.610;11.136;2022-11-11T05:07:46;11.25;;;5.43;;
15254;SDS011;7730;49.610;11.136;2022-11-11T05:10:30;12.25;;;5.50;;
15254;SDS011;7730;49.610;11.136;2022-11-11T05:12:58;14.38;;;5.50;;
15254;SDS011;7730;49.610;11.136;2022-11-11T05:15:38;13.60;;;5.68;;
15254;SDS011;7730;49.610;11.136;2022-11-11T05:18:23;14.10;;;5.30;;
15254;SDS011;7730;49.610;11.136;2022-11-11T05:21:08;13.68;;;5.38;;
15254;SDS011;7730;49.610;11.136;2022-11-11T05:23:48;12.95;;;5.20;;
15254;SDS011;7730;49.610;11.136;2022-11-11T05:26:33;15.38;;;5.50;;
15254;SDS011;7730;49.610;11.136;2022-11-11T05:29:00;15.48;;;6.07;;
15254;SDS011;7730;49.610;11.136;2022-11-11T05:31:28;14.60;;;5.45;;
15254;SDS011;7730;49.610;11.136;2022-11-11T05:33:55;14.82;;;5.20;;
15254;SDS011;7730;49.610;11.136;2022-11-11T05:36:22;13.43;;;5.20;;
15254;SDS011;7730;49.610;11.136;2022-11-11T05:38:51;11.00;;;4.70;;
15254;SDS011;7730;49.610;11.136;2022-11-11T05:41:18;13.93;;;4.70;;
15254;SDS011;7730;49.610;11.136;2022-11-11T05:43:45;12.70;;;4.75;;
15254;SDS011;7730;49.610;11.136;2022-11-11T05:46:12;11.15;;;4.90;;
15254;SDS011;7730;49.610;11.136;2022-11-11T05:48:39;12.98;;;5.10;;
15254;SDS011;7730;49.610;11.136;2022-11-11T05:51:26;12.30;;;4.80;;
15254;SDS011;7730;49.610;11.136;2022-11-11T05:53:55;12.55;;;4.63;;
15254;SDS011;7730;49.610;11.136;2022-11-11T05:56:23;13.88;;;5.20;;
15254;SDS011;7730;49.610;11.136;2022-11-11T05:58:50;13.63;;;5.50;;
15254;SDS011;7730;49.610;11.136;2022-11-11T06:01:17;12.70;;;5.30;;
15254;SDS011;7730;49.610;11.136;2022-11-11T06:03:44;12.98;;;5.40;;
15254;SDS011;7730;49.610;11.136;2022-11-11T06:06:12;14.02;;;5.70;;
15254;SDS011;7730;49.610;11.136;2022-11-11T06:08:39;15.50;;;6.30;;
15254;SDS011;7730;49.610;11.136;2022-11-11T06:11:07;14.68;;;5.57;;
15254;SDS011;7730;49.610;11.136;2022-11-11T06:13:34;15.05;;;5.60;;
15254;SDS011;7730;49.610;11.136;2022-11-11T06:16:02;12.05;;;5.25;;
15254;SDS011;7730;49.610;11.136;2022-11-11T06:18:29;15.20;;;5.95;;
15254;SDS011;7730;49.610;11.136;2022-11-11T06:20:57;13.20;;;4.80;;
15254;SDS011;7730;49.610;11.136;2022-11-11T06:23:24;12.63;;;4.90;;
15254;SDS011;7730;49.610;11.136;2022-11-11T06:25:52;15.85;;;5.05;;
15254;SDS011;7730;49.610;11.136;2022-11-11T06:28:38;15.48;;;4.72;;
15254;SDS011;7730;49.610;11.136;2022-11-11T06:31:05;18.63;;;4.93;;
15254;SDS011;7730;49.610;11.136;2022-11-11T06:33:32;17.08;;;4.35;;
15254;SDS011;7730;49.610;11.136;2022-11-11T06:36:00;10.48;;;3.95;;
15254;SDS011;7730;49.610;11.136;2022-11-11T06:38:27;7.85;;;3.30;;
15254;SDS011;7730;49.610;11.136;2022-11-11T06:40:54;13.68;;;3.90;;
15254;SDS011;7730;49.610;11.136;2022-11-11T06:43:21;7.63;;;3.30;;
15254;SDS011;7730;49.610;11.136;2022-11-11T06:45:50;7.55;;;3.17;;
15254;SDS011;7730;49.610;11.136;2022-11-11T06:48:17;12.02;;;3.20;;
15254;SDS011;7730;49.610;11.136;2022-11-11T06:50:45;10.07;;;3.47;;
15254;SDS011;7730;49.610;11.136;2022-11-11T06:53:13;8.73;;;3.28;;
15254;SDS011;7730;49.610;11.136;2022-11-11T06:55:40;8.38;;;3.10;;
15254;SDS011;7730;49.610;11.136;2022-11-11T06:58:08;10.40;;;3.22;;
15254;SDS011;7730;49.610;11.136;2022-11-11T07:00:35;7.13;;;2.97;;
15254;SDS011;7730;49.610;11.136;2022-11-11T07:03:05;8.40;;;2.88;;
15254;SDS011;7730;49.610;11.136;2022-11-11T07:05:32;8.45;;;2.90;;
15254;SDS011;7730;49.610;11.136;2022-11-11T07:08:00;7.75;;;3.10;;
15254;SDS011;7730;49.610;11.136;2022-11-11T07:10:28;8.60;;;3.13;;
15254;SDS011;7730;49.610;11.136;2022-11-11T07:12:55;8.63;;;3.30;;
15254;SDS011;7730;49.610;11.136;2022-11-11T07:15:22;8.30;;;2.92;;
15254;SDS011;7730;49.610;11.136;2022-11-11T07:17:49;11.68;;;3.42;;
15254;SDS011;7730;49.610;11.136;2022-11-11T07:20:17;11.68;;;3.67;;
15254;SDS011;7730;49.610;11.136;2022-11-11T07:22:45;11.85;;;3.55;;
15254;SDS011;7730;49.610;11.136;2022-11-11T07:25:12;10.75;;;3.55;;
15254;SDS011;7730;49.610;11.136;2022-11-11T07:27:39;12.63;;;3.60;;
15254;SDS011;7730;49.610;11.136;2022-11-11T07:30:07;13.93;;;4.50;;
15254;SDS011;7730;49.610;11.136;2022-11-11T07:32:34;24.45;;;6.70;;
15254;SDS011;7730;49.610;11.136;2022-11-11T07:35:02;17.02;;;5.97;;
15254;SDS011;7730;49.610;11.136;2022-11-11T07:37:30;15.63;;;4.90;;
15254;SDS011;7730;49.610;11.136;2022-11-11T07:39:57;12.13;;;4.38;;
15254;SDS011;7730;49.610;11.136;2022-11-11T07:42:24;12.98;;;3.95;;
15254;SDS011;7730;49.610;11.136;2022-11-11T07:44:51;22.38;;;6.03;;
15254;SDS011;7730;49.610;11.136;2022-11-11T07:47:18;21.92;;;6.70;;
15254;SDS011;7730;49.610;11.136;2022-11-11T07:49:45;26.60;;;7.22;;
15254;SDS011;7730;49.610;11.136;2022-11-11T07:52:12;26.13;;;9.48;;
15254;SDS011;7730;49.610;11.136;2022-11-11T07:54:41;24.20;;;7.82;;
15254;SDS011;7730;49.610;11.136;2022-11-11T07:57:08;25.80;;;7.53;;
15254;SDS011;7730;49.610;11.136;2022-11-11T07:59:35;20.33;;;7.30;;
15254;SDS011;7730;49.610;11.136;2022-11-11T08:02:02;18.58;;;7.00;;
15254;SDS011;7730;49.610;11.136;2022-11-11T08:04:29;20.27;;;6.20;;
15254;SDS011;7730;49.610;11.136;2022-11-11T08:06:56;21.10;;;6.05;;
15254;SDS011;7730;49.610;11.136;2022-11-11T08:09:23;21.15;;;8.35;;
15254;SDS011;7730;49.610;11.136;2022-11-11T08:11:52;20.58;;;6.50;;
15254;SDS011;7730;49.610;11.136;2022-11-11T08:14:37;17.20;;;5.95;;
15254;SDS011;7730;49.610;11.136;2022-11-11T08:17:04;14.85;;;5.50;;
15254;SDS011;7730;49.610;11.136;2022-11-11T08:19:31;14.30;;;5.40;;
15254;SDS011;7730;49.610;11.136;2022-11-11T08:21:58;14.98;;;5.40;;
15254;SDS011;7730;49.610;11.136;2022-11-11T08:24:25;15.57;;;4.40;;
15254;SDS011;7730;49.610;11.136;2022-11-11T08:26:53;14.35;;;4.90;;
15254;SDS011;7730;49.610;11.136;2022-11-11T08:29:20;15.60;;;5.25;;
15254;SDS011;7730;49.610;11.136;2022-11-11T08:31:50;14.88;;;4.88;;
15254;SDS011;7730;49.610;11.136;2022-11-11T08:34:17;10.90;;;3.55;;
15254;SDS011;7730;49.610;11.136;2022-11-11T08:36:44;10.60;;;3.60;;
15254;SDS011;7730;49.610;11.136;2022-11-11T08:39:11;10.35;;;3.72;;
15254;SDS011;7730;49.610;11.136;2022-11-11T08:41:38;12.27;;;3.63;;
15254;SDS011;7730;49.610;11.136;2022-11-11T08:44:06;17.30;;;4.32;;
15254;SDS011;7730;49.610;11.136;2022-11-11T08:46:33;9.52;;;3.63;;
15254;SDS011;7730;49.610;11.136;2022-11-11T08:49:01;11.27;;;3.80;;
15254;SDS011;7730;49.610;11.136;2022-11-11T08:51:28;24.45;;;5.57;;
15254;SDS011;7730;49.610;11.136;2022-11-11T08:53:55;18.73;;;7.97;;
15254;SDS011;7730;49.610;11.136;2022-11-11T08:56:22;16.92;;;7.00;;
15254;SDS011;7730;49.610;11.136;2022-11-11T08:58:49;21.17;;;8.10;;
15254;SDS011;7730;49.610;11.136;2022-11-11T09:01:17;24.95;;;7.97;;
15254;SDS011;7730;49.610;11.136;2022-11-11T09:03:44;15.32;;;4.95;;
15254;SDS011;7730;49.610;11.136;2022-11-11T09:06:11;16.08;;;5.05;;
15254;SDS011;7730;49.610;11.136;2022-11-11T09:08:40;17.35;;;5.35;;
15254;SDS011;7730;49.610;11.136;2022-11-11T09:11:07;13.57;;;4.63;;
15254;SDS011;7730;49.610;11.136;2022-11-11T09:13:34;12.73;;;5.60;;
15254;SDS011;7730;49.610;11.136;2022-11-11T09:16:01;14.50;;;5.80;;
15254;SDS011;7730;49.610;11.136;2022-11-11T09:18:30;14.65;;;5.60;;
15254;SDS011;7730;49.610;11.136;2022-11-11T09:20:57;13.80;;;5.63;;
15254;SDS011;7730;49.610;11.136;2022-11-11T09:23:24;14.73;;;5.20;;
15254;SDS011;7730;49.610;11.136;2022-11-11T09:25:51;13.98;;;5.20;;
15254;SDS011;7730;49.610;11.136;2022-11-11T09:28:18;11.35;;;4.55;;
15254;SDS011;7730;49.610;11.136;2022-11-11T09:30:46;8.32;;;3.92;;
15254;SDS011;7730;49.610;11.136;2022-11-11T09:33:13;13.93;;;3.78;;
15254;SDS011;7730;49.610;11.136;2022-11-11T09:35:43;12.23;;;4.68;;
15254;SDS011;7730;49.610;11.136;2022-11-11T09:38:10;11.25;;;4.53;;
15254;SDS011;7730;49.610;11.136;2022-11-11T09:40:41;11.60;;;4.72;;
15254;SDS011;7730;49.610;11.136;2022-11-11T09:43:12;12.80;;;4.93;;
15254;SDS011;7730;49.610;11.136;2022-11-11T09:45:43;11.20;;;4.70;;
15254;SDS011;7730;49.610;11.136;2022-11-11T09:50:59;11.63;;;4.60;;
15254;SDS011;7730;49.610;11.136;2022-11-11T09:53:29;10.45;;;4.40;;
15254;SDS011;7730;49.610;11.136;2022-11-11T09:56:00;12.23;;;5.00;;
15254;SDS011;7730;49.610;11.136;2022-11-11T09:58:28;12.07;;;4.53;;
15254;SDS011;7730;49.610;11.136;2022-11-11T10:00:57;10.95;;;4.78;;
15254;SDS011;7730;49.610;11.136;2022-11-11T10:03:26;12.13;;;5.07;;
15254;SDS011;7730;49.610;11.136;2022-11-11T10:05:56;13.60;;;4.97;;
15254;SDS011;7730;49.610;11.136;2022-11-11T10:08:27;14.02;;;5.03;;
15254;SDS011;7730;49.610;11.136;2022-11-11T10:10:57;13.23;;;5.47;;
15254;SDS011;7730;49.610;11.136;2022-11-11T10:13:26;10.50;;;4.80;;
15254;SDS011;7730;49.610;11.136;2022-11-11T10:15:56;12.50;;;5.00;;
15254;SDS011;7730;49.610;11.136;2022-11-11T10:18:29;12.35;;;5.28;;
15254;SDS011;7730;49.610;11.136;2022-11-11T10:20:57;16.35;;;6.05;;
15254;SDS011;7730;49.610;11.136;2022-11-11T10:23:28;17.70;;;5.97;;
15254;SDS011;7730;49.610;11.136;2022-11-11T10:25:56;14.98;;;5.88;;
15254;SDS011;7730;49.610;11.136;2022-11-11T10:28:26;12.45;;;5.35;;
15254;SDS011;7730;49.610;11.136;2022-11-11T10:30:55;14.75;;;5.43;;
15254;SDS011;7730;49.610;11.136;2022-11-11T10:33:23;13.23;;;5.47;;
15254;SDS011;7730;49.610;11.136;2022-11-11T10:35:51;11.93;;;5.00;;
15254;SDS011;7730;49.610;11.136;2022-11-11T10:38:22;12.40;;;5.15;;
15254;SDS011;7730;49.610;11.136;2022-11-11T10:40:53;13.00;;;5.28;;
15254;SDS011;7730;49.610;11.136;2022-11-11T10:43:22;15.55;;;6.00;;
15254;SDS011;7730;49.610;11.136;2022-11-11T10:45:54;14.00;;;6.22;;
15254;SDS011;7730;49.610;11.136;2022-11-11T10:48:27;13.25;;;5.32;;
15254;SDS011;7730;49.610;11.136;2022-11-11T10:50:56;11.32;;;4.80;;
15254;SDS011;7730;49.610;11.136;2022-11-11T10:53:24;11.80;;;4.90;;
15254;SDS011;7730;49.610;11.136;2022-11-11T10:55:59;11.05;;;4.75;;
15254;SDS011;7730;49.610;11.136;2022-11-11T10:58:27;9.45;;;5.13;;
15254;SDS011;7730;49.610;11.136;2022-11-11T11:00:56;12.68;;;4.93;;
15254;SDS011;7730;49.610;11.136;2022-11-11T11:03:26;13.48;;;4.80;;
15254;SDS011;7730;49.610;11.136;2022-11-11T11:05:57;12.13;;;5.07;;
15254;SDS011;7730;49.610;11.136;2022-11-11T11:08:25;13.55;;;5.28;;
15254;SDS011;7730;49.610;11.136;2022-11-11T11:10:54;9.82;;;4.50;;
15254;SDS011;7730;49.610;11.136;2022-11-11T11:13:24;10.90;;;4.78;;
15254;SDS011;7730;49.610;11.136;2022-11-11T11:15:54;11.00;;;4.88;;
15254;SDS011;7730;49.610;11.136;2022-11-11T11:18:23;10.13;;;4.47;;
15254;SDS011;7730;49.610;11.136;2022-11-11T11:20:54;11.52;;;4.75;;
15254;SDS011;7730;49.610;11.136;2022-11-11T11:23:33;11.07;;;4.28;;
15254;SDS011;7730;49.610;11.136;2022-11-11T11:26:01;11.35;;;4.70;;
15254;SDS011;7730;49.610;11.136;2022-11-11T11:28:30;10.35;;;4.10;;
15254;SDS011;7730;49.610;11.136;2022-11-11T11:30:58;10.00;;;4.45;;
15254;SDS011;7730;49.610;11.136;2022-11-11T11:33:26;10.60;;;4.50;;
15254;SDS011;7730;49.610;11.136;2022-11-11T11:35:53;12.05;;;4.85;;
15254;SDS011;7730;49.610;11.136;2022-11-11T11:38:20;11.20;;;4.50;;
15254;SDS011;7730;49.610;11.136;2022-11-11T11:41:05;13.02;;;4.93;;
15254;SDS011;7730;49.610;11.136;2022-11-11T11:43:34;19.83;;;5.60;;
15254;SDS011;7730;49.610;11.136;2022-11-11T11:46:02;13.05;;;4.80;;
15254;SDS011;7730;49.610;11.136;2022-11-11T11:48:34;11.05;;;4.60;;
15254;SDS011;7730;49.610;11.136;2022-11-11T11:51:08;11.43;;;4.53;;
15254;SDS011;7730;49.610;11.136;2022-11-11T11:53:40;10.52;;;4.10;;
15254;SDS011;7730;49.610;11.136;2022-11-11T11:56:14;9.90;;;3.90;;
15254;SDS011;7730;49.610;11.136;2022-11-11T11:58:50;8.75;;;3.88;;
15254;SDS011;7730;49.610;11.136;2022-11-11T12:01:20;9.20;;;3.90;;
15254;SDS011;7730;49.610;11.136;2022-11-11T12:04:13;9.73;;;4.10;;
15254;SDS011;7730;49.610;11.136;2022-11-11T12:06:46;10.52;;;4.07;;
15254;SDS011;7730;49.610;11.136;2022-11-11T12:09:19;12.55;;;4.22;;
15254;SDS011;7730;49.610;11.136;2022-11-11T12:11:49;11.43;;;4.10;;
15254;SDS011;7730;49.610;11.136;2022-11-11T12:14:25;13.23;;;4.20;;
15254;SDS011;7730;49.610;11.136;2022-11-11T12:16:56;11.20;;;4.00;;
15254;SDS011;7730;49.610;11.136;2022-11-11T12:19:31;9.07;;;3.42;;
15254;SDS011;7730;49.610;11.136;2022-11-11T12:22:02;9.82;;;3.58;;
15254;SDS011;7730;49.610;11.136;2022-11-11T12:24:37;7.78;;;3.60;;
15254;SDS011;7730;49.610;11.136;2022-11-11T12:27:07;7.45;;;3.35;;
15254;SDS011;7730;49.610;11.136;2022-11-11T12:29:40;8.07;;;3.33;;
15254;SDS011;7730;49.610;11.136;2022-11-11T12:32:20;9.32;;;3.55;;
15254;SDS011;7730;49.610;11.136;2022-11-11T12:34:59;8.15;;;3.47;;
15254;SDS011;7730;49.610;11.136;2022-11-11T12:37:30;6.45;;;3.22;;
15254;SDS011;7730;49.610;11.136;2022-11-11T12:40:13;7.80;;;3.20;;
15254;SDS011;7730;49.610;11.136;2022-11-11T12:42:45;6.35;;;3.25;;
15254;SDS011;7730;49.610;11.136;2022-11-11T12:45:16;8.10;;;3.50;;
15254;SDS011;7730;49.610;11.136;2022-11-11T12:47:46;10.32;;;3.70;;
15254;SDS011;7730;49.610;11.136;2022-11-11T12:50:16;9.02;;;3.83;;
15254;SDS011;7730;49.610;11.136;2022-11-11T12:52:48;11.30;;;3.70;;
15254;SDS011;7730;49.610;11.136;2022-11-11T12:55:19;7.63;;;2.95;;
15254;SDS011;7730;49.610;11.136;2022-11-11T12:58:02;9.27;;;3.40;;
15254;SDS011;7730;49.610;11.136;2022-11-11T13:00:32;9.60;;;3.63;;
15254;SDS011;7730;49.610;11.136;2022-11-11T13:03:08;10.35;;;3.58;;
15254;SDS011;7730;49.610;11.136;2022-11-11T13:05:39;10.05;;;3.45;;
15254;SDS011;7730;49.610;11.136;2022-11-11T13:08:29;8.48;;;3.38;;
15254;SDS011;7730;49.610;11.136;2022-11-11T13:11:06;8.60;;;3.20;;
15254;SDS011;7730;49.610;11.136;2022-11-11T13:13:37;7.95;;;3.08;;
15254;SDS011;7730;49.610;11.136;2022-11-11T13:16:09;9.65;;;3.22;;
15254;SDS011;7730;49.610;11.136;2022-11-11T13:18:39;7.35;;;3.20;;
15254;SDS011;7730;49.610;11.136;2022-11-11T13:21:09;9.70;;;3.67;;
15254;SDS011;7730;49.610;11.136;2022-11-11T13:23:37;9.63;;;3.45;;
15254;SDS011;7730;49.610;11.136;2022-11-11T13:26:10;8.18;;;3.58;;
15254;SDS011;7730;49.610;11.136;2022-11-11T13:28:38;7.60;;;3.25;;
15254;SDS011;7730;49.610;11.136;2022-11-11T13:31:13;9.13;;;3.13;;
15254;SDS011;7730;49.610;11.136;2022-11-11T13:33:43;9.15;;;3.65;;
15254;SDS011;7730;49.610;11.136;2022-11-11T13:36:13;8.30;;;3.30;;
15254;SDS011;7730;49.610;11.136;2022-11-11T13:38:43;6.43;;;2.95;;
15254;SDS011;7730;49.610;11.136;2022-11-11T13:41:11;8.98;;;3.30;;
15254;SDS011;7730;49.610;11.136;2022-11-11T13:43:40;7.32;;;3.00;;
15254;SDS011;7730;49.610;11.136;2022-11-11T13:46:26;6.03;;;2.45;;
15254;SDS011;7730;49.610;11.136;2022-11-11T13:48:55;8.18;;;3.13;;
15254;SDS011;7730;49.610;11.136;2022-11-11T13:51:23;8.50;;;3.03;;
15254;SDS011;7730;49.610;11.136;2022-11-11T13:53:51;9.88;;;3.42;;
15254;SDS011;7730;49.610;11.136;2022-11-11T13:56:22;7.65;;;3.00;;
15254;SDS011;7730;49.610;11.136;2022-11-11T13:58:50;10.50;;;2.90;;
15254;SDS011;7730;49.610;11.136;2022-11-11T14:01:18;8.73;;;3.15;;
15254;SDS011;7730;49.610;11.136;2022-11-11T14:03:59;7.90;;;2.70;;
15254;SDS011;7730;49.610;11.136;2022-11-11T14:06:36;6.97;;;2.50;;
15254;SDS011;7730;49.610;11.136;2022-11-11T14:09:04;6.75;;;2.67;;
15254;SDS011;7730;49.610;11.136;2022-11-11T14:11:32;6.45;;;2.60;;
15254;SDS011;7730;49.610;11.136;2022-11-11T14:16:59;8.82;;;2.88;;
15254;SDS011;7730;49.610;11.136;2022-11-11T14:19:27;6.70;;;2.55;;
15254;SDS011;7730;49.610;11.136;2022-11-11T14:21:57;8.70;;;2.78;;
15254;SDS011;7730;49.610;11.136;2022-11-11T14:24:25;7.78;;;2.60;;
15254;SDS011;7730;49.610;11.136;2022-11-11T14:26:57;9.48;;;2.70;;
15254;SDS011;7730;49.610;11.136;2022-11-11T14:29:26;12.90;;;3.30;;
15254;SDS011;7730;49.610;11.136;2022-11-11T14:32:09;7.60;;;2.60;;
15254;SDS011;7730;49.610;11.136;2022-11-11T14:34:43;6.97;;;2.53;;
15254;SDS011;7730;49.610;11.136;2022-11-11T14:37:15;7.95;;;2.80;;
15254;SDS011;7730;49.610;11.136;2022-11-11T14:39:46;6.45;;;2.50;;
15254;SDS011;7730;49.610;11.136;2022-11-11T14:45:09;6.68;;;2.47;;
15254;SDS011;7730;49.610;11.136;2022-11-11T14:47:56;6.90;;;2.50;;
15254;SDS011;7730;49.610;11.136;2022-11-11T14:50:40;6.07;;;2.42;;
15254;SDS011;7730;49.610;11.136;2022-11-11T14:53:08;9.23;;;2.85;;
15254;SDS011;7730;49.610;11.136;2022-11-11T14:55:38;10.13;;;2.60;;
15254;SDS011;7730;49.610;11.136;2022-11-11T14:58:08;9.35;;;2.38;;
15254;SDS011;7730;49.610;11.136;2022-11-11T15:00:42;9.80;;;2.70;;
15254;SDS011;7730;49.610;11.136;2022-11-11T15:03:11;9.80;;;2.50;;
15254;SDS011;7730;49.610;11.136;2022-11-11T15:05:44;11.63;;;2.67;;